createdAt,value
2019-05-21T00:00:34.378Z,0
2019-05-21T00:01:34.466Z,0
2019-05-21T00:02:34.488Z,0
2019-05-21T00:03:34.573Z,0
2019-05-21T00:04:34.643Z,0
2019-05-21T00:05:34.717Z,0
2019-05-21T00:06:34.783Z,0
2019-05-21T00:07:35.057Z,0
2019-05-21T00:08:34.981Z,0
2019-05-21T00:09:34.948Z,0
2019-05-21T00:10:35.013Z,0
2019-05-21T00:11:35.067Z,0
2019-05-21T00:12:35.156Z,0
2019-05-21T00:13:35.256Z,0
2019-05-21T00:14:35.366Z,0
2019-05-21T00:15:35.599Z,0
2019-05-21T00:16:35.525Z,0
2019-05-21T00:17:35.579Z,0
2019-05-21T00:18:35.720Z,0
2019-05-21T00:19:35.817Z,0
2019-05-21T00:20:36.016Z,0
2019-05-21T00:21:35.989Z,0
2019-05-21T00:22:36.136Z,0
2019-05-21T00:23:36.284Z,0
2019-05-21T00:24:36.272Z,0
2019-05-21T00:25:36.354Z,0
2019-05-21T00:26:36.461Z,0
2019-05-21T00:27:36.641Z,0
2019-05-21T00:28:36.773Z,0
2019-05-21T00:29:36.666Z,0
2019-05-21T00:30:36.767Z,0
2019-05-21T00:31:36.858Z,0
2019-05-21T00:32:36.904Z,0
2019-05-21T00:33:37.046Z,0
2019-05-21T00:34:43.732Z,0
2019-05-21T00:35:37.305Z,0
2019-05-21T00:36:37.236Z,0
2019-05-21T00:37:37.365Z,0
2019-05-21T00:38:37.490Z,0
2019-05-21T00:39:37.579Z,0
2019-05-21T00:40:37.889Z,0
2019-05-21T00:41:37.803Z,0
2019-05-21T00:42:37.899Z,0
2019-05-21T00:43:38.147Z,0
2019-05-21T00:44:38.093Z,0
2019-05-21T00:45:38.208Z,0
2019-05-21T00:46:38.288Z,0
2019-05-21T00:47:38.384Z,0
2019-05-21T00:48:38.554Z,0
2019-05-21T00:49:38.476Z,0
2019-05-21T00:50:38.586Z,0
2019-05-21T00:51:38.728Z,0
2019-05-21T00:52:38.790Z,0
2019-05-21T00:53:39.159Z,0
2019-05-21T00:54:39.015Z,0
2019-05-21T00:55:39.055Z,0
2019-05-21T00:56:40.147Z,0
2019-05-21T00:57:39.203Z,0
2019-05-21T00:58:39.314Z,0
2019-05-21T00:59:39.527Z,0
2019-05-21T01:00:39.475Z,0
2019-05-21T01:01:39.550Z,0
2019-05-21T01:02:39.616Z,0
2019-05-21T01:03:43.066Z,0
2019-05-21T01:04:39.834Z,0
2019-05-21T01:05:40.918Z,0
2019-05-21T01:06:40.005Z,0
2019-05-21T01:07:40.082Z,0
2019-05-21T01:08:40.153Z,0
2019-05-21T01:09:40.244Z,0
2019-05-21T01:10:40.312Z,0
2019-05-21T01:11:40.361Z,0
2019-05-21T01:12:40.434Z,0
2019-05-21T01:13:40.507Z,0
2019-05-21T01:14:40.714Z,0
2019-05-21T01:15:40.631Z,0
2019-05-21T01:16:40.707Z,0
2019-05-21T01:17:40.770Z,0
2019-05-21T01:18:40.884Z,0
2019-05-21T01:19:40.898Z,0
2019-05-21T01:20:40.975Z,0
2019-05-21T01:21:41.064Z,0
2019-05-21T01:22:41.152Z,0
2019-05-21T01:23:41.410Z,0
2019-05-21T01:24:41.347Z,0
2019-05-21T01:25:41.431Z,0
2019-05-21T01:26:41.476Z,0
2019-05-21T01:27:41.549Z,0
2019-05-21T01:28:41.616Z,0
2019-05-21T01:29:41.692Z,0
2019-05-21T01:30:41.815Z,0
2019-05-21T01:31:41.884Z,0
2019-05-21T01:32:41.972Z,0
2019-05-21T01:33:42.141Z,0
2019-05-21T01:34:42.101Z,0
2019-05-21T01:35:42.183Z,0
2019-05-21T01:36:42.243Z,0
2019-05-21T01:37:42.312Z,0
2019-05-21T01:38:42.389Z,0
2019-05-21T01:39:42.453Z,0
2019-05-21T01:40:42.543Z,0
2019-05-21T01:41:42.627Z,0
2019-05-21T01:42:42.704Z,0
2019-05-21T01:43:42.763Z,0
2019-05-21T01:44:42.863Z,0
2019-05-21T01:45:43.030Z,0
2019-05-21T01:46:42.958Z,0
2019-05-21T01:47:43.010Z,0
2019-05-21T01:48:43.114Z,0
2019-05-21T01:49:43.216Z,0
2019-05-21T01:50:43.324Z,0
2019-05-21T01:51:43.387Z,0
2019-05-21T01:52:43.470Z,0
2019-05-21T01:53:43.524Z,0
2019-05-21T01:54:43.614Z,0
2019-05-21T01:55:43.717Z,0
2019-05-21T01:56:43.783Z,0
2019-05-21T01:57:43.859Z,0
2019-05-21T01:58:43.943Z,0
2019-05-21T01:59:44.024Z,0
2019-05-21T02:00:44.213Z,0
2019-05-21T02:01:44.303Z,0
2019-05-21T02:02:44.219Z,0
2019-05-21T02:03:44.340Z,0
2019-05-21T02:04:44.424Z,0
2019-05-21T02:05:44.525Z,0
2019-05-21T02:06:44.685Z,0
2019-05-21T02:07:44.752Z,0
2019-05-21T02:08:44.806Z,0
2019-05-21T02:09:44.852Z,0
2019-05-21T02:10:44.973Z,0
2019-05-21T02:11:45.127Z,0
2019-05-21T02:12:45.141Z,0
2019-05-21T02:13:45.223Z,0
2019-05-21T02:14:45.283Z,0
2019-05-21T02:15:45.356Z,0
2019-05-21T02:16:45.479Z,0
2019-05-21T02:17:45.541Z,0
2019-05-21T02:18:45.704Z,0
2019-05-21T02:19:45.783Z,0
2019-05-21T02:20:45.845Z,0
2019-05-21T02:21:46.025Z,0
2019-05-21T02:22:45.911Z,0
2019-05-21T02:23:45.984Z,0
2019-05-21T02:24:46.047Z,0
2019-05-21T02:25:46.126Z,0
2019-05-21T02:26:46.147Z,0
2019-05-21T02:27:46.218Z,0
2019-05-21T02:28:46.279Z,0
2019-05-21T02:29:46.355Z,0
2019-05-21T02:30:46.418Z,0
2019-05-21T02:31:47.465Z,0
2019-05-21T02:32:46.544Z,0
2019-05-21T02:33:46.671Z,0
2019-05-21T02:34:46.726Z,0
2019-05-21T02:35:53.967Z,0
2019-05-21T02:36:46.949Z,0
2019-05-21T02:37:47.014Z,0
2019-05-21T02:38:47.080Z,0
2019-05-21T02:39:47.179Z,0
2019-05-21T02:40:47.234Z,0
2019-05-21T02:41:47.327Z,0
2019-05-21T02:42:47.393Z,0
2019-05-21T02:43:47.457Z,0
2019-05-21T02:44:47.498Z,0
2019-05-21T02:45:47.534Z,0
2019-05-21T02:46:47.636Z,0
2019-05-21T02:47:47.710Z,0
2019-05-21T02:48:47.845Z,0
2019-05-21T02:49:47.930Z,0
2019-05-21T02:50:47.996Z,0
2019-05-21T02:51:48.081Z,0
2019-05-21T02:52:48.060Z,0
2019-05-21T02:53:49.108Z,0
2019-05-21T02:54:48.225Z,0
2019-05-21T02:55:48.359Z,0
2019-05-21T02:56:48.465Z,0
2019-05-21T02:57:48.490Z,0
2019-05-21T02:58:48.579Z,1
2019-05-21T02:59:48.671Z,1
2019-05-21T03:00:48.741Z,1
2019-05-21T03:01:48.827Z,1
2019-05-21T03:02:48.924Z,1
2019-05-21T03:03:49.004Z,1
2019-05-21T03:04:49.099Z,1
2019-05-21T03:05:49.132Z,1
2019-05-21T03:06:50.184Z,2
2019-05-21T03:07:49.289Z,2
2019-05-21T03:08:49.358Z,2
2019-05-21T03:09:49.462Z,2
2019-05-21T03:10:49.534Z,3
2019-05-21T03:11:49.597Z,3
2019-05-21T03:12:49.740Z,3
2019-05-21T03:13:49.733Z,2
2019-05-21T03:14:49.803Z,3
2019-05-21T03:15:49.829Z,4
2019-05-21T03:16:49.907Z,5
2019-05-21T03:17:50.016Z,5
2019-05-21T03:18:50.089Z,5
2019-05-21T03:19:50.174Z,5
2019-05-21T03:20:51.311Z,6
2019-05-21T03:21:50.378Z,6
2019-05-21T03:22:50.475Z,6
2019-05-21T03:23:50.707Z,7
2019-05-21T03:24:50.621Z,9
2019-05-21T03:25:51.711Z,12
2019-05-21T03:26:50.763Z,12
2019-05-21T03:27:50.868Z,12
2019-05-21T03:28:50.960Z,12
2019-05-21T03:29:51.047Z,14
2019-05-21T03:30:51.117Z,14
2019-05-21T03:31:51.201Z,13
2019-05-21T03:32:51.238Z,16
2019-05-21T03:33:51.363Z,19
2019-05-21T03:34:51.455Z,18
2019-05-21T03:35:51.586Z,17
2019-05-21T03:36:51.650Z,21
2019-05-21T03:37:51.793Z,24
2019-05-21T03:38:51.947Z,25
2019-05-21T03:39:51.858Z,24
2019-05-21T03:40:51.929Z,28
2019-05-21T03:41:51.991Z,32
2019-05-21T03:42:52.095Z,41
2019-05-21T03:43:52.188Z,49
2019-05-21T03:44:59.485Z,55
2019-05-21T03:45:52.425Z,59
2019-05-21T03:46:52.325Z,50
2019-05-21T03:47:52.462Z,67
2019-05-21T03:48:52.556Z,74
2019-05-21T03:49:52.657Z,74
2019-05-21T03:50:52.722Z,69
2019-05-21T03:51:52.805Z,59
2019-05-21T03:52:52.863Z,71
2019-05-21T03:53:53.008Z,68
2019-05-21T03:54:53.100Z,65
2019-05-21T03:55:54.222Z,71
2019-05-21T03:56:53.293Z,89
2019-05-21T03:57:53.367Z,102
2019-05-21T03:58:53.427Z,89
2019-05-21T03:59:53.526Z,89
2019-05-21T04:00:53.620Z,79
2019-05-21T04:01:54.677Z,75
2019-05-21T04:02:53.733Z,85
2019-05-21T04:03:54.924Z,112
2019-05-21T04:04:53.860Z,129
2019-05-21T04:05:53.936Z,141
2019-05-21T04:06:53.997Z,124
2019-05-21T04:07:54.066Z,155
2019-05-21T04:08:54.056Z,180
2019-05-21T04:09:54.127Z,138
2019-05-21T04:10:54.190Z,143
2019-05-21T04:11:54.314Z,169
2019-05-21T04:12:54.373Z,162
2019-05-21T04:13:54.449Z,167
2019-05-21T04:14:54.522Z,165
2019-05-21T04:15:55.587Z,142
2019-05-21T04:16:54.661Z,114
2019-05-21T04:17:54.665Z,124
2019-05-21T04:18:54.725Z,158
2019-05-21T04:19:54.821Z,188
2019-05-21T04:20:54.880Z,164
2019-05-21T04:21:54.948Z,171
2019-05-21T04:22:55.057Z,178
2019-05-21T04:23:55.142Z,216
2019-05-21T04:24:55.282Z,205
2019-05-21T04:25:55.258Z,189
2019-05-21T04:26:55.358Z,195
2019-05-21T04:27:55.495Z,216
2019-05-21T04:28:55.557Z,255
2019-05-21T04:29:56.671Z,258
2019-05-21T04:30:55.793Z,266
2019-05-21T04:31:55.892Z,251
2019-05-21T04:32:56.023Z,298
2019-05-21T04:33:56.085Z,378
2019-05-21T04:34:56.165Z,322
2019-05-21T04:35:56.405Z,372
2019-05-21T04:37:09.709Z,423
2019-05-21T04:37:57.511Z,398
2019-05-21T04:38:56.561Z,427
2019-05-21T04:39:56.683Z,345
2019-05-21T04:40:56.700Z,384
2019-05-21T04:41:56.821Z,370
2019-05-21T04:42:56.836Z,401
2019-05-21T04:43:57.087Z,393
2019-05-21T04:44:56.996Z,348
2019-05-21T04:45:57.073Z,348
2019-05-21T04:46:57.086Z,454
2019-05-21T04:47:57.075Z,424
2019-05-21T04:48:57.096Z,475
2019-05-21T04:49:57.107Z,486
2019-05-21T04:50:57.158Z,483
2019-05-21T04:51:57.180Z,515
2019-05-21T04:52:57.336Z,521
2019-05-21T04:53:57.280Z,573
2019-05-21T04:54:57.284Z,513
2019-05-21T04:55:57.474Z,508
2019-05-21T04:56:57.518Z,479
2019-05-21T04:57:57.535Z,504
2019-05-21T04:58:57.590Z,550
2019-05-21T04:59:57.594Z,585
2019-05-21T05:00:57.645Z,642
2019-05-21T05:01:57.676Z,518
2019-05-21T05:02:57.677Z,447
2019-05-21T05:03:57.782Z,464
2019-05-21T05:04:57.827Z,453
2019-05-21T05:05:57.836Z,442
2019-05-21T05:06:57.900Z,453
2019-05-21T05:07:57.897Z,537
2019-05-21T05:08:57.898Z,443
2019-05-21T05:09:57.906Z,479
2019-05-21T05:10:57.937Z,439
2019-05-21T05:11:57.979Z,466
2019-05-21T05:12:57.998Z,482
2019-05-21T05:13:58.001Z,493
2019-05-21T05:14:58.001Z,546
2019-05-21T05:15:58.074Z,499
2019-05-21T05:16:58.065Z,495
2019-05-21T05:17:58.078Z,491
2019-05-21T05:18:58.136Z,474
2019-05-21T05:19:58.154Z,461
2019-05-21T05:20:58.185Z,463
2019-05-21T05:21:58.209Z,430
2019-05-21T05:22:58.219Z,405
2019-05-21T05:23:58.248Z,442
2019-05-21T05:24:58.273Z,486
2019-05-21T05:25:58.270Z,496
2019-05-21T05:26:58.306Z,507
2019-05-21T05:27:58.344Z,410
2019-05-21T05:28:58.374Z,407
2019-05-21T05:29:58.390Z,502
2019-05-21T05:30:58.400Z,466
2019-05-21T05:31:58.482Z,500
2019-05-21T05:32:58.700Z,459
2019-05-21T05:33:58.574Z,542
2019-05-21T05:34:58.646Z,550
2019-05-21T05:35:58.645Z,658
2019-05-21T05:36:58.712Z,726
2019-05-21T05:37:58.747Z,737
2019-05-21T05:38:58.774Z,696
2019-05-21T05:39:58.858Z,760
2019-05-21T05:40:58.910Z,804
2019-05-21T05:41:58.927Z,813
2019-05-21T05:42:58.967Z,996
2019-05-21T05:43:58.970Z,1031
2019-05-21T05:44:58.985Z,1017
2019-05-21T05:45:59.013Z,1076
2019-05-21T05:46:59.022Z,1014
2019-05-21T05:47:59.088Z,959
2019-05-21T05:49:01.662Z,993
2019-05-21T05:49:59.140Z,1285
2019-05-21T05:50:59.142Z,1069
2019-05-21T05:51:59.164Z,1095
2019-05-21T05:52:59.237Z,919
2019-05-21T05:53:59.246Z,843
2019-05-21T05:54:59.262Z,822
2019-05-21T05:55:59.295Z,1097
2019-05-21T05:56:59.309Z,1017
2019-05-21T05:57:59.453Z,1293
2019-05-21T05:58:59.524Z,1099
2019-05-21T05:59:59.531Z,1196
2019-05-21T06:00:59.523Z,1102
2019-05-21T06:01:59.525Z,1259
2019-05-21T06:02:59.592Z,1445
2019-05-21T06:03:59.596Z,1478
2019-05-21T06:04:59.598Z,1839
2019-05-21T06:05:59.597Z,1476
2019-05-21T06:06:59.851Z,1610
2019-05-21T06:08:00.551Z,1673
2019-05-21T06:08:59.920Z,1751
2019-05-21T06:09:59.942Z,1511
2019-05-21T06:10:59.942Z,1773
2019-05-21T06:11:59.973Z,1821
2019-05-21T06:13:00.043Z,1562
2019-05-21T06:14:00.133Z,1970
2019-05-21T06:15:00.141Z,1636
2019-05-21T06:16:00.272Z,2094
2019-05-21T06:17:00.299Z,2078
2019-05-21T06:18:00.395Z,2420
2019-05-21T06:19:00.453Z,2886
2019-05-21T06:20:00.524Z,2740
2019-05-21T06:21:00.534Z,2839
2019-05-21T06:22:00.536Z,5061
2019-05-21T06:23:00.580Z,4979
2019-05-21T06:24:00.624Z,4840
2019-05-21T06:25:00.651Z,4061
2019-05-21T06:26:00.737Z,4053
2019-05-21T06:27:00.751Z,5420
2019-05-21T06:28:00.750Z,3991
2019-05-21T06:29:00.784Z,4019
2019-05-21T06:30:00.774Z,5132
2019-05-21T06:31:00.783Z,4681
2019-05-21T06:32:00.793Z,4361
2019-05-21T06:33:00.808Z,2126
2019-05-21T06:34:00.852Z,2607
2019-05-21T06:35:00.883Z,3182
2019-05-21T06:36:00.918Z,3009
2019-05-21T06:37:00.938Z,4060
2019-05-21T06:38:16.390Z,3612
2019-05-21T06:39:02.089Z,3249
2019-05-21T06:40:01.148Z,3268
2019-05-21T06:41:01.117Z,3901
2019-05-21T06:42:01.140Z,2942
2019-05-21T06:43:01.164Z,2710
2019-05-21T06:44:01.174Z,2971
2019-05-21T06:45:01.289Z,2307
2019-05-21T06:46:01.323Z,2062
2019-05-21T06:47:01.334Z,4848
2019-05-21T06:48:01.362Z,4134
2019-05-21T06:49:01.365Z,5148
2019-05-21T06:50:01.424Z,2673
2019-05-21T06:51:01.440Z,4222
2019-05-21T06:52:01.454Z,3775
2019-05-21T06:53:01.463Z,2583
2019-05-21T06:54:01.530Z,2541
2019-05-21T06:55:01.613Z,3413
2019-05-21T06:56:01.644Z,3930
2019-05-21T06:57:01.631Z,3344
2019-05-21T06:58:02.636Z,2610
2019-05-21T06:59:01.692Z,2748
2019-05-21T07:00:01.796Z,2433
2019-05-21T07:01:01.800Z,3188
2019-05-21T07:02:01.815Z,2930
2019-05-21T07:03:01.821Z,4270
2019-05-21T07:04:01.903Z,2539
2019-05-21T07:05:01.947Z,2613
2019-05-21T07:06:01.959Z,3730
2019-05-21T07:07:01.979Z,3823
2019-05-21T07:08:02.008Z,3621
2019-05-21T07:09:02.015Z,3438
2019-05-21T07:10:02.101Z,4060
2019-05-21T07:11:02.208Z,3606
2019-05-21T07:12:02.110Z,3242
2019-05-21T07:13:02.139Z,2670
2019-05-21T07:14:02.260Z,2758
2019-05-21T07:15:03.293Z,2692
2019-05-21T07:16:02.319Z,3144
2019-05-21T07:17:02.358Z,2659
2019-05-21T07:18:02.366Z,2447
2019-05-21T07:19:02.421Z,2544
2019-05-21T07:20:02.480Z,2845
2019-05-21T07:21:02.512Z,3117
2019-05-21T07:22:11.873Z,4337
2019-05-21T07:23:03.765Z,3885
2019-05-21T07:24:02.652Z,3803
2019-05-21T07:25:02.723Z,3488
2019-05-21T07:26:02.902Z,3943
2019-05-21T07:27:02.756Z,4209
2019-05-21T07:28:02.755Z,4566
2019-05-21T07:29:02.876Z,4057
2019-05-21T07:30:02.962Z,4352
2019-05-21T07:31:02.936Z,4024
2019-05-21T07:32:02.966Z,4009
2019-05-21T07:33:03.145Z,4413
2019-05-21T07:34:03.110Z,5106
2019-05-21T07:35:03.185Z,4274
2019-05-21T07:36:03.249Z,3995
2019-05-21T07:37:03.326Z,4140
2019-05-21T07:38:03.339Z,4895
2019-05-21T07:39:03.355Z,5176
2019-05-21T07:40:03.401Z,4241
2019-05-21T07:41:03.479Z,3200
2019-05-21T07:42:03.517Z,3502
2019-05-21T07:43:03.523Z,3301
2019-05-21T07:44:03.667Z,3333
2019-05-21T07:45:03.723Z,3643
2019-05-21T07:46:03.760Z,3473
2019-05-21T07:47:03.838Z,4025
2019-05-21T07:48:03.840Z,4415
2019-05-21T07:49:03.846Z,4470
2019-05-21T07:50:03.889Z,3298
2019-05-21T07:51:03.994Z,3229
2019-05-21T07:52:03.892Z,2760
2019-05-21T07:53:03.878Z,2711
2019-05-21T07:54:03.908Z,3932
2019-05-21T07:55:03.988Z,2570
2019-05-21T07:56:04.004Z,2791
2019-05-21T07:57:04.145Z,2439
2019-05-21T07:58:04.182Z,2619
2019-05-21T07:59:04.243Z,2518
2019-05-21T08:00:04.184Z,2512
2019-05-21T08:01:04.198Z,2175
2019-05-21T08:02:04.284Z,2059
2019-05-21T08:03:04.297Z,2018
2019-05-21T08:04:04.378Z,2108
2019-05-21T08:05:04.594Z,2126
2019-05-21T08:06:04.565Z,2046
2019-05-21T08:07:05.738Z,2118
2019-05-21T08:08:04.715Z,2019
2019-05-21T08:09:13.013Z,1959
2019-05-21T08:10:05.859Z,1792
2019-05-21T08:11:04.898Z,1512
2019-05-21T08:12:22.699Z,1652
2019-05-21T08:13:05.975Z,1805
2019-05-21T08:14:05.034Z,2123
2019-05-21T08:15:05.139Z,2508
2019-05-21T08:16:05.166Z,2339
2019-05-21T08:17:06.159Z,1656
2019-05-21T08:18:05.223Z,2381
2019-05-21T08:19:05.255Z,3005
2019-05-21T08:20:09.695Z,2150
2019-05-21T08:21:05.407Z,1941
2019-05-21T08:22:05.434Z,2071
2019-05-21T08:23:05.467Z,2649
2019-05-21T08:24:05.481Z,2615
2019-05-21T08:25:05.494Z,2428
2019-05-21T08:26:06.562Z,2554
2019-05-21T08:27:05.579Z,2761
2019-05-21T08:28:05.628Z,2570
2019-05-21T08:29:05.656Z,2207
2019-05-21T08:30:05.685Z,3077
2019-05-21T08:31:05.700Z,2652
2019-05-21T08:32:05.706Z,2533
2019-05-21T08:33:05.755Z,3408
2019-05-21T08:34:05.763Z,3015
2019-05-21T08:35:05.768Z,2892
2019-05-21T08:36:06.069Z,3358
2019-05-21T08:37:05.824Z,3360
2019-05-21T08:38:06.680Z,3062
2019-05-21T08:39:05.920Z,3215
2019-05-21T08:40:06.907Z,2934
2019-05-21T08:41:05.965Z,2512
2019-05-21T08:42:05.966Z,2799
2019-05-21T08:43:06.016Z,2658
2019-05-21T08:44:06.017Z,2785
2019-05-21T08:45:06.251Z,2905
2019-05-21T08:46:06.175Z,2642
2019-05-21T08:47:06.213Z,2968
2019-05-21T08:48:06.242Z,2926
2019-05-21T08:49:06.313Z,3310
2019-05-21T08:50:06.331Z,3181
2019-05-21T08:51:06.368Z,3397
2019-05-21T08:52:06.389Z,3928
2019-05-21T08:53:06.474Z,3907
2019-05-21T08:54:06.524Z,4588
2019-05-21T08:55:06.525Z,3849
2019-05-21T08:56:06.562Z,3820
2019-05-21T08:57:06.660Z,3563
2019-05-21T08:58:07.706Z,3174
2019-05-21T08:59:06.778Z,3641
2019-05-21T09:00:06.851Z,4002
2019-05-21T09:01:06.840Z,3943
2019-05-21T09:02:06.950Z,3620
2019-05-21T09:03:06.947Z,3665
2019-05-21T09:04:07.118Z,4290
2019-05-21T09:05:07.069Z,3672
2019-05-21T09:06:07.082Z,3505
2019-05-21T09:07:07.145Z,3697
2019-05-21T09:08:07.205Z,3603
2019-05-21T09:09:07.208Z,3663
2019-05-21T09:10:07.208Z,3562
2019-05-21T09:11:07.217Z,2743
2019-05-21T09:12:07.244Z,4891
2019-05-21T09:13:07.281Z,3375
2019-05-21T09:14:08.366Z,2865
2019-05-21T09:15:07.373Z,2601
2019-05-21T09:16:07.384Z,2803
2019-05-21T09:17:07.410Z,2659
2019-05-21T09:18:07.425Z,3917
2019-05-21T09:19:07.475Z,3192
2019-05-21T09:20:07.540Z,3412
2019-05-21T09:21:07.571Z,3578
2019-05-21T09:22:07.639Z,3796
2019-05-21T09:23:07.606Z,4155
2019-05-21T09:24:07.673Z,4102
2019-05-21T09:25:07.682Z,3652
2019-05-21T09:26:07.722Z,3374
2019-05-21T09:27:07.785Z,2805
2019-05-21T09:28:07.792Z,2913
2019-05-21T09:29:07.966Z,3741
2019-05-21T09:30:07.921Z,3588
2019-05-21T09:31:07.940Z,2924
2019-05-21T09:32:07.940Z,2950
2019-05-21T09:33:08.006Z,2817
2019-05-21T09:34:08.027Z,2323
2019-05-21T09:35:08.073Z,2479
2019-05-21T09:36:08.137Z,2768
2019-05-21T09:37:18.902Z,2938
2019-05-21T09:38:09.375Z,2586
2019-05-21T09:39:08.435Z,2502
2019-05-21T09:40:08.467Z,2709
2019-05-21T09:41:08.475Z,2637
2019-05-21T09:42:08.511Z,2305
2019-05-21T09:43:08.595Z,2155
2019-05-21T09:44:08.593Z,2092
2019-05-21T09:45:08.647Z,1838
2019-05-21T09:46:08.674Z,1956
2019-05-21T09:47:08.749Z,1943
2019-05-21T09:48:08.748Z,1897
2019-05-21T09:49:08.759Z,1788
2019-05-21T09:50:08.976Z,1949
2019-05-21T09:51:08.815Z,2181
2019-05-21T09:52:09.941Z,2306
2019-05-21T09:53:08.939Z,2612
2019-05-21T09:54:08.982Z,2530
2019-05-21T09:55:09.029Z,2471
2019-05-21T09:56:09.047Z,2511
2019-05-21T09:57:09.078Z,2363
2019-05-21T09:58:09.069Z,2365
2019-05-21T09:59:10.189Z,2779
2019-05-21T10:00:09.236Z,2850
2019-05-21T10:01:09.327Z,2981
2019-05-21T10:02:09.360Z,2752
2019-05-21T10:03:09.380Z,2705
2019-05-21T10:04:09.380Z,2790
2019-05-21T10:05:09.428Z,3210
2019-05-21T10:06:09.455Z,3007
2019-05-21T10:07:09.473Z,2666
2019-05-21T10:08:09.472Z,2650
2019-05-21T10:09:09.472Z,2677
2019-05-21T10:10:09.591Z,2954
2019-05-21T10:11:09.738Z,3279
2019-05-21T10:12:09.653Z,2825
2019-05-21T10:13:09.695Z,2595
2019-05-21T10:14:09.694Z,3076
2019-05-21T10:15:09.744Z,3251
2019-05-21T10:16:09.823Z,2885
2019-05-21T10:17:09.843Z,2692
2019-05-21T10:18:09.885Z,3065
2019-05-21T10:19:09.907Z,3071
2019-05-21T10:20:09.927Z,2411
2019-05-21T10:21:09.974Z,2516
2019-05-21T10:22:10.337Z,2613
2019-05-21T10:23:10.030Z,2743
2019-05-21T10:24:10.050Z,3251
2019-05-21T10:25:10.053Z,3096
2019-05-21T10:26:10.070Z,3147
2019-05-21T10:27:10.084Z,3193
2019-05-21T10:28:10.098Z,2990
2019-05-21T10:29:10.146Z,2849
2019-05-21T10:30:10.309Z,2661
2019-05-21T10:31:10.266Z,3560
2019-05-21T10:32:10.275Z,4284
2019-05-21T10:33:10.284Z,3763
2019-05-21T10:34:13.235Z,4122
2019-05-21T10:35:10.421Z,2915
2019-05-21T10:36:10.478Z,3562
2019-05-21T10:37:10.577Z,3689
2019-05-21T10:38:10.579Z,5363
2019-05-21T10:39:10.583Z,4410
2019-05-21T10:40:10.612Z,3333
2019-05-21T10:41:10.633Z,3162
2019-05-21T10:42:10.717Z,5688
2019-05-21T10:43:10.729Z,5586
2019-05-21T10:44:10.741Z,6503
2019-05-21T10:45:10.732Z,5690
2019-05-21T10:46:10.728Z,4206
2019-05-21T10:47:10.856Z,3640
2019-05-21T10:48:11.000Z,5877
2019-05-21T10:49:10.846Z,4414
2019-05-21T10:50:10.850Z,3319
2019-05-21T10:51:11.060Z,2709
2019-05-21T10:52:10.888Z,2640
2019-05-21T10:53:10.918Z,2882
2019-05-21T10:54:10.946Z,2519
2019-05-21T10:55:10.960Z,2468
2019-05-21T10:56:11.119Z,2646
2019-05-21T10:57:11.285Z,3219
2019-05-21T10:58:11.298Z,3760
2019-05-21T10:59:11.290Z,4142
2019-05-21T11:00:11.306Z,3003
2019-05-21T11:01:12.341Z,3336
2019-05-21T11:02:11.444Z,3203
2019-05-21T11:03:11.452Z,3425
2019-05-21T11:04:11.472Z,2882
2019-05-21T11:05:11.487Z,3931
2019-05-21T11:06:11.657Z,3741
2019-05-21T11:07:11.544Z,2844
2019-05-21T11:08:24.917Z,2607
2019-05-21T11:09:12.721Z,4184
2019-05-21T11:10:11.764Z,3510
2019-05-21T11:11:11.802Z,4036
2019-05-21T11:12:12.854Z,4837
2019-05-21T11:13:11.855Z,3430
2019-05-21T11:14:11.887Z,3789
2019-05-21T11:15:11.952Z,4571
2019-05-21T11:16:12.065Z,3944
2019-05-21T11:17:12.135Z,3669
2019-05-21T11:18:12.364Z,4093
2019-05-21T11:19:12.212Z,5053
2019-05-21T11:20:12.247Z,3664
2019-05-21T11:21:12.276Z,3375
2019-05-21T11:22:12.308Z,2630
2019-05-21T11:23:12.358Z,3314
2019-05-21T11:24:12.543Z,3687
2019-05-21T11:25:12.433Z,2775
2019-05-21T11:26:12.438Z,3390
2019-05-21T11:27:12.443Z,2663
2019-05-21T11:28:12.493Z,2140
2019-05-21T11:29:12.506Z,1928
2019-05-21T11:30:12.536Z,2043
2019-05-21T11:31:12.735Z,1915
2019-05-21T11:32:12.697Z,2451
2019-05-21T11:33:12.742Z,2658
2019-05-21T11:34:12.768Z,3117
2019-05-21T11:35:12.772Z,3914
2019-05-21T11:36:12.796Z,3858
2019-05-21T11:37:12.806Z,3301
2019-05-21T11:38:12.892Z,3795
2019-05-21T11:39:12.935Z,3480
2019-05-21T11:40:13.249Z,3131
2019-05-21T11:41:13.052Z,5015
2019-05-21T11:42:13.058Z,4231
2019-05-21T11:43:13.101Z,4532
2019-05-21T11:44:13.097Z,3926
2019-05-21T11:45:13.102Z,4334
2019-05-21T11:46:14.106Z,5827
2019-05-21T11:47:13.180Z,4949
2019-05-21T11:48:13.214Z,4026
2019-05-21T11:49:13.230Z,5309
2019-05-21T11:50:13.302Z,4473
2019-05-21T11:51:13.316Z,2912
2019-05-21T11:52:13.362Z,2896
2019-05-21T11:53:13.460Z,2459
2019-05-21T11:54:13.435Z,3394
2019-05-21T11:55:13.451Z,2536
2019-05-21T11:56:13.496Z,2037
2019-05-21T11:57:13.467Z,2503
2019-05-21T11:58:13.633Z,2818
2019-05-21T11:59:13.720Z,3365
2019-05-21T12:00:13.731Z,3745
2019-05-21T12:01:13.773Z,3309
2019-05-21T12:02:13.787Z,3326
2019-05-21T12:03:13.898Z,2810
2019-05-21T12:04:13.919Z,2446
2019-05-21T12:05:13.930Z,2012
2019-05-21T12:06:13.945Z,1943
2019-05-21T12:07:13.970Z,2372
2019-05-21T12:08:14.064Z,3189
2019-05-21T12:09:14.139Z,3789
2019-05-21T12:10:14.135Z,2370
2019-05-21T12:11:14.146Z,2031
2019-05-21T12:12:14.189Z,1901
2019-05-21T12:13:14.223Z,1931
2019-05-21T12:14:14.266Z,3247
2019-05-21T12:15:14.469Z,2138
2019-05-21T12:16:14.327Z,2504
2019-05-21T12:17:14.363Z,3884
2019-05-21T12:18:14.403Z,4222
2019-05-21T12:19:14.487Z,4960
2019-05-21T12:20:14.517Z,4969
2019-05-21T12:21:15.498Z,4970
2019-05-21T12:22:14.498Z,4553
2019-05-21T12:23:15.618Z,3251
2019-05-21T12:24:14.672Z,3484
2019-05-21T12:25:14.690Z,2664
2019-05-21T12:26:14.711Z,3434
2019-05-21T12:27:14.749Z,4258
2019-05-21T12:28:14.846Z,3338
2019-05-21T12:29:14.912Z,2306
2019-05-21T12:30:14.862Z,3171
2019-05-21T12:31:15.877Z,3198
2019-05-21T12:32:14.944Z,4303
2019-05-21T12:33:14.929Z,3155
2019-05-21T12:34:15.063Z,2904
2019-05-21T12:35:15.082Z,2913
2019-05-21T12:36:15.092Z,2818
2019-05-21T12:37:15.127Z,2835
2019-05-21T12:38:15.105Z,3346
2019-05-21T12:39:15.198Z,3690
2019-05-21T12:40:15.225Z,3083
2019-05-21T12:41:15.264Z,2921
2019-05-21T12:42:15.312Z,3931
2019-05-21T12:43:15.347Z,4731
2019-05-21T12:44:15.439Z,5287
2019-05-21T12:45:15.515Z,4607
2019-05-21T12:46:15.547Z,2439
2019-05-21T12:47:15.548Z,2483
2019-05-21T12:48:15.583Z,2987
2019-05-21T12:49:15.588Z,2904
2019-05-21T12:50:15.642Z,4090
2019-05-21T12:51:15.795Z,3372
2019-05-21T12:52:15.816Z,2423
2019-05-21T12:53:16.627Z,3527
2019-05-21T12:54:15.827Z,4187
2019-05-21T12:55:15.894Z,2723
2019-05-21T12:56:15.918Z,2485
2019-05-21T12:57:15.947Z,3317
2019-05-21T12:58:15.979Z,4337
2019-05-21T12:59:16.066Z,4372
2019-05-21T13:00:16.133Z,4525
2019-05-21T13:01:16.156Z,3890
2019-05-21T13:02:17.168Z,3378
2019-05-21T13:03:16.171Z,3987
2019-05-21T13:04:16.219Z,4840
2019-05-21T13:05:16.310Z,8039
2019-05-21T13:06:16.336Z,8185
2019-05-21T13:07:16.425Z,5058
2019-05-21T13:08:16.487Z,5990
2019-05-21T13:09:30.123Z,5078
2019-05-21T13:10:17.626Z,5954
2019-05-21T13:11:17.632Z,6284
2019-05-21T13:12:16.724Z,6486
2019-05-21T13:13:16.744Z,5289
2019-05-21T13:14:18.798Z,3502
2019-05-21T13:15:16.757Z,2763
2019-05-21T13:16:16.876Z,2763
2019-05-21T13:17:16.909Z,2491
2019-05-21T13:18:16.926Z,3829
2019-05-21T13:19:16.984Z,4297
2019-05-21T13:20:17.011Z,4843
2019-05-21T13:21:17.072Z,4862
2019-05-21T13:22:17.116Z,5060
2019-05-21T13:23:17.139Z,4254
2019-05-21T13:24:17.178Z,4180
2019-05-21T13:25:17.222Z,4756
2019-05-21T13:26:17.261Z,7805
2019-05-21T13:27:17.323Z,8211
2019-05-21T13:28:17.449Z,7941
2019-05-21T13:29:17.493Z,7056
2019-05-21T13:30:17.501Z,5920
2019-05-21T13:31:17.642Z,4064
2019-05-21T13:32:17.555Z,4312
2019-05-21T13:33:19.559Z,6245
2019-05-21T13:34:17.642Z,7280
2019-05-21T13:35:17.662Z,7341
2019-05-21T13:36:17.702Z,10111
2019-05-21T13:37:17.830Z,11243
2019-05-21T13:38:17.811Z,11710
2019-05-21T13:39:17.827Z,11791
2019-05-21T13:40:17.941Z,11389
2019-05-21T13:41:18.055Z,8691
2019-05-21T13:42:18.073Z,7681
2019-05-21T13:43:21.112Z,7658
2019-05-21T13:44:18.114Z,10119
2019-05-21T13:45:18.226Z,9784